LIPY/AOI METAR and TAF weather

Enter ICAO airport designator
Station Type Date Time Source
LIPY METAR 2021/09/16 09:50 UTC NOAA

LIPY 160950Z AUTO 05004KT 030V100 9999 BKN110/// 26/16 Q1017


Station Type Date Time Source
LIPY Decoded METAR 2021/09/16 09:50 UTC NOAA

Falconara, Italy (LIPY) 43-37N 013-22E 10M
Sep 16, 2021 - 05:50 AM EDT / 2021.09.16 0950 UTC
Wind: from the NE (050 degrees) at 5 MPH (4 KT) (direction variable):0
Visibility: greater than 7 mile(s):0
Sky conditions: mostly cloudy
Temperature: 78 F (26 C)
Dew Point: 60 F (16 C)
Relative Humidity: 54%
Pressure (altimeter): 30.03 in. Hg (1017 hPa)
ob: LIPY 160950Z AUTO 05004KT 030V100 9999 BKN110/// 26/16 Q1017
cycle: 10

Station Type Date Time Source
LIPY TAF 2021/09/16 06:24 UTC NOAA

TAF LIPY 160500Z 1606/1706 24008KT 9999 FEW040 PROB40
TEMPO 1608/1618 SHRA

Example: see airport list